sensor_id;sensor_type;location;lat;lon;timestamp;P1;durP1;ratioP1;P2;durP2;ratioP2
16531;SDS011;66872;63.142;14.482;2023-05-10T00:00:38;2.10;;;2.00;;
16531;SDS011;66872;63.142;14.482;2023-05-10T00:03:04;2.00;;;1.90;;
16531;SDS011;66872;63.142;14.482;2023-05-10T00:05:31;2.37;;;2.10;;
16531;SDS011;66872;63.142;14.482;2023-05-10T00:07:56;2.30;;;2.10;;
16531;SDS011;66872;63.142;14.482;2023-05-10T00:10:22;2.47;;;2.03;;
16531;SDS011;66872;63.142;14.482;2023-05-10T00:12:48;1.90;;;1.80;;
16531;SDS011;66872;63.142;14.482;2023-05-10T00:15:13;2.07;;;1.90;;
16531;SDS011;66872;63.142;14.482;2023-05-10T00:17:39;2.10;;;1.90;;
16531;SDS011;66872;63.142;14.482;2023-05-10T00:20:05;2.30;;;2.10;;
16531;SDS011;66872;63.142;14.482;2023-05-10T00:22:31;2.20;;;2.00;;
16531;SDS011;66872;63.142;14.482;2023-05-10T00:24:58;2.10;;;2.00;;
16531;SDS011;66872;63.142;14.482;2023-05-10T00:27:24;2.17;;;1.97;;
16531;SDS011;66872;63.142;14.482;2023-05-10T00:29:49;2.27;;;2.07;;
16531;SDS011;66872;63.142;14.482;2023-05-10T00:32:15;2.27;;;2.03;;
16531;SDS011;66872;63.142;14.482;2023-05-10T00:34:41;2.40;;;2.20;;
16531;SDS011;66872;63.142;14.482;2023-05-10T00:37:07;2.00;;;1.90;;
16531;SDS011;66872;63.142;14.482;2023-05-10T00:39:32;2.60;;;1.73;;
16531;SDS011;66872;63.142;14.482;2023-05-10T00:41:58;2.40;;;2.20;;
16531;SDS011;66872;63.142;14.482;2023-05-10T00:44:24;2.40;;;2.20;;
16531;SDS011;66872;63.142;14.482;2023-05-10T00:46:50;2.63;;;1.93;;
16531;SDS011;66872;63.142;14.482;2023-05-10T00:49:16;2.20;;;2.00;;
16531;SDS011;66872;63.142;14.482;2023-05-10T00:51:42;2.20;;;2.00;;
16531;SDS011;66872;63.142;14.482;2023-05-10T00:54:12;2.23;;;1.90;;
16531;SDS011;66872;63.142;14.482;2023-05-10T00:56:40;2.03;;;1.93;;
16531;SDS011;66872;63.142;14.482;2023-05-10T00:59:06;2.80;;;2.00;;
16531;SDS011;66872;63.142;14.482;2023-05-10T01:01:36;1.80;;;1.70;;
16531;SDS011;66872;63.142;14.482;2023-05-10T01:04:02;1.90;;;1.80;;
16531;SDS011;66872;63.142;14.482;2023-05-10T01:06:28;1.93;;;1.83;;
16531;SDS011;66872;63.142;14.482;2023-05-10T01:08:54;1.80;;;1.70;;
16531;SDS011;66872;63.142;14.482;2023-05-10T01:11:21;2.43;;;1.80;;
16531;SDS011;66872;63.142;14.482;2023-05-10T01:13:47;3.13;;;1.90;;
16531;SDS011;66872;63.142;14.482;2023-05-10T01:16:20;2.00;;;1.90;;
16531;SDS011;66872;63.142;14.482;2023-05-10T01:18:45;2.13;;;1.93;;
16531;SDS011;66872;63.142;14.482;2023-05-10T01:21:55;1.87;;;1.77;;
16531;SDS011;66872;63.142;14.482;2023-05-10T01:32:02;3.23;;;1.90;;
16531;SDS011;66872;63.142;14.482;2023-05-10T01:40:32;2.50;;;1.70;;
16531;SDS011;66872;63.142;14.482;2023-05-10T01:43:01;1.73;;;1.63;;
16531;SDS011;66872;63.142;14.482;2023-05-10T01:48:11;2.10;;;1.90;;
16531;SDS011;66872;63.142;14.482;2023-05-10T01:50:39;1.93;;;1.83;;
16531;SDS011;66872;63.142;14.482;2023-05-10T01:53:09;2.00;;;1.90;;
16531;SDS011;66872;63.142;14.482;2023-05-10T01:55:41;1.87;;;1.77;;
16531;SDS011;66872;63.142;14.482;2023-05-10T01:58:13;1.93;;;1.83;;
16531;SDS011;66872;63.142;14.482;2023-05-10T02:00:42;4.13;;;1.90;;
16531;SDS011;66872;63.142;14.482;2023-05-10T02:03:10;2.00;;;1.90;;
16531;SDS011;66872;63.142;14.482;2023-05-10T02:05:38;1.60;;;1.50;;
16531;SDS011;66872;63.142;14.482;2023-05-10T02:08:06;1.80;;;1.70;;
16531;SDS011;66872;63.142;14.482;2023-05-10T02:10:36;1.87;;;1.73;;
16531;SDS011;66872;63.142;14.482;2023-05-10T02:13:03;1.93;;;1.83;;
16531;SDS011;66872;63.142;14.482;2023-05-10T02:15:31;2.10;;;1.90;;
16531;SDS011;66872;63.142;14.482;2023-05-10T02:17:59;1.90;;;1.80;;
16531;SDS011;66872;63.142;14.482;2023-05-10T02:20:26;1.80;;;1.70;;
16531;SDS011;66872;63.142;14.482;2023-05-10T02:22:53;1.90;;;1.70;;
16531;SDS011;66872;63.142;14.482;2023-05-10T02:25:20;1.97;;;1.87;;
16531;SDS011;66872;63.142;14.482;2023-05-10T02:27:47;2.00;;;1.90;;
16531;SDS011;66872;63.142;14.482;2023-05-10T02:30:14;2.07;;;1.87;;
16531;SDS011;66872;63.142;14.482;2023-05-10T02:32:41;1.70;;;1.60;;
16531;SDS011;66872;63.142;14.482;2023-05-10T02:35:08;1.90;;;1.80;;
16531;SDS011;66872;63.142;14.482;2023-05-10T02:37:35;1.80;;;1.70;;
16531;SDS011;66872;63.142;14.482;2023-05-10T02:40:02;1.97;;;1.80;;
16531;SDS011;66872;63.142;14.482;2023-05-10T02:42:31;1.73;;;1.63;;
16531;SDS011;66872;63.142;14.482;2023-05-10T02:45:00;1.77;;;1.67;;
16531;SDS011;66872;63.142;14.482;2023-05-10T02:47:28;2.07;;;1.90;;
16531;SDS011;66872;63.142;14.482;2023-05-10T02:49:54;1.80;;;1.70;;
16531;SDS011;66872;63.142;14.482;2023-05-10T02:52:25;1.97;;;1.87;;
16531;SDS011;66872;63.142;14.482;2023-05-10T02:54:58;2.00;;;1.80;;
16531;SDS011;66872;63.142;14.482;2023-05-10T02:57:28;1.83;;;1.73;;
16531;SDS011;66872;63.142;14.482;2023-05-10T02:59:59;1.70;;;1.60;;
16531;SDS011;66872;63.142;14.482;2023-05-10T03:02:26;1.80;;;1.70;;
16531;SDS011;66872;63.142;14.482;2023-05-10T03:04:51;1.90;;;1.77;;
16531;SDS011;66872;63.142;14.482;2023-05-10T03:07:17;1.80;;;1.70;;
16531;SDS011;66872;63.142;14.482;2023-05-10T03:09:46;1.67;;;1.57;;
16531;SDS011;66872;63.142;14.482;2023-05-10T03:15:17;1.73;;;1.63;;
16531;SDS011;66872;63.142;14.482;2023-05-10T03:17:59;1.70;;;1.60;;
16531;SDS011;66872;63.142;14.482;2023-05-10T03:20:35;1.90;;;1.80;;
16531;SDS011;66872;63.142;14.482;2023-05-10T03:23:13;1.70;;;1.60;;
16531;SDS011;66872;63.142;14.482;2023-05-10T03:25:51;1.70;;;1.60;;
16531;SDS011;66872;63.142;14.482;2023-05-10T03:28:17;2.00;;;1.90;;
16531;SDS011;66872;63.142;14.482;2023-05-10T03:30:45;1.80;;;1.70;;
16531;SDS011;66872;63.142;14.482;2023-05-10T03:33:12;1.87;;;1.77;;
16531;SDS011;66872;63.142;14.482;2023-05-10T03:35:38;1.90;;;1.80;;
16531;SDS011;66872;63.142;14.482;2023-05-10T03:38:04;1.70;;;1.60;;
16531;SDS011;66872;63.142;14.482;2023-05-10T03:40:30;1.80;;;1.70;;
16531;SDS011;66872;63.142;14.482;2023-05-10T03:42:57;1.63;;;1.53;;
16531;SDS011;66872;63.142;14.482;2023-05-10T03:45:23;1.90;;;1.80;;
16531;SDS011;66872;63.142;14.482;2023-05-10T03:47:49;1.83;;;1.63;;
16531;SDS011;66872;63.142;14.482;2023-05-10T03:50:15;1.70;;;1.60;;
16531;SDS011;66872;63.142;14.482;2023-05-10T03:52:41;1.93;;;1.80;;
16531;SDS011;66872;63.142;14.482;2023-05-10T03:55:07;1.67;;;1.57;;
16531;SDS011;66872;63.142;14.482;2023-05-10T03:57:33;1.63;;;1.53;;
16531;SDS011;66872;63.142;14.482;2023-05-10T03:59:59;1.73;;;1.63;;
16531;SDS011;66872;63.142;14.482;2023-05-10T04:02:25;1.83;;;1.50;;
16531;SDS011;66872;63.142;14.482;2023-05-10T04:04:51;1.67;;;1.57;;
16531;SDS011;66872;63.142;14.482;2023-05-10T04:07:16;1.77;;;1.67;;
16531;SDS011;66872;63.142;14.482;2023-05-10T04:09:43;1.70;;;1.60;;
16531;SDS011;66872;63.142;14.482;2023-05-10T04:12:08;1.97;;;1.87;;
16531;SDS011;66872;63.142;14.482;2023-05-10T04:14:34;1.70;;;1.60;;
16531;SDS011;66872;63.142;14.482;2023-05-10T04:17:00;2.00;;;1.60;;
16531;SDS011;66872;63.142;14.482;2023-05-10T04:19:29;1.80;;;1.60;;
16531;SDS011;66872;63.142;14.482;2023-05-10T04:21:55;1.73;;;1.63;;
16531;SDS011;66872;63.142;14.482;2023-05-10T04:24:21;1.80;;;1.70;;
16531;SDS011;66872;63.142;14.482;2023-05-10T04:26:46;1.80;;;1.70;;
16531;SDS011;66872;63.142;14.482;2023-05-10T04:29:12;1.80;;;1.70;;
16531;SDS011;66872;63.142;14.482;2023-05-10T04:31:38;1.63;;;1.53;;
16531;SDS011;66872;63.142;14.482;2023-05-10T04:34:03;2.33;;;1.57;;
16531;SDS011;66872;63.142;14.482;2023-05-10T04:36:30;1.87;;;1.77;;
16531;SDS011;66872;63.142;14.482;2023-05-10T04:38:57;1.77;;;1.67;;
16531;SDS011;66872;63.142;14.482;2023-05-10T04:41:23;1.73;;;1.63;;
16531;SDS011;66872;63.142;14.482;2023-05-10T04:43:49;1.77;;;1.67;;
16531;SDS011;66872;63.142;14.482;2023-05-10T04:46:15;1.70;;;1.60;;
16531;SDS011;66872;63.142;14.482;2023-05-10T04:48:41;1.70;;;1.60;;
16531;SDS011;66872;63.142;14.482;2023-05-10T04:51:07;1.90;;;1.80;;
16531;SDS011;66872;63.142;14.482;2023-05-10T04:53:32;1.80;;;1.70;;
16531;SDS011;66872;63.142;14.482;2023-05-10T04:55:58;1.90;;;1.80;;
16531;SDS011;66872;63.142;14.482;2023-05-10T04:58:24;1.80;;;1.70;;
16531;SDS011;66872;63.142;14.482;2023-05-10T05:00:49;1.80;;;1.70;;
16531;SDS011;66872;63.142;14.482;2023-05-10T05:03:15;1.50;;;1.40;;
16531;SDS011;66872;63.142;14.482;2023-05-10T05:05:41;1.73;;;1.50;;
16531;SDS011;66872;63.142;14.482;2023-05-10T05:08:06;1.70;;;1.60;;
16531;SDS011;66872;63.142;14.482;2023-05-10T05:10:32;1.70;;;1.60;;
16531;SDS011;66872;63.142;14.482;2023-05-10T05:12:58;1.60;;;1.50;;
16531;SDS011;66872;63.142;14.482;2023-05-10T05:15:23;1.90;;;1.80;;
16531;SDS011;66872;63.142;14.482;2023-05-10T05:17:49;1.80;;;1.70;;
16531;SDS011;66872;63.142;14.482;2023-05-10T05:20:15;1.77;;;1.60;;
16531;SDS011;66872;63.142;14.482;2023-05-10T05:22:41;1.73;;;1.63;;
16531;SDS011;66872;63.142;14.482;2023-05-10T05:25:06;1.60;;;1.50;;
16531;SDS011;66872;63.142;14.482;2023-05-10T05:27:32;1.80;;;1.70;;
16531;SDS011;66872;63.142;14.482;2023-05-10T05:29:58;1.70;;;1.60;;
16531;SDS011;66872;63.142;14.482;2023-05-10T05:32:24;1.90;;;1.80;;
16531;SDS011;66872;63.142;14.482;2023-05-10T05:34:50;1.60;;;1.50;;
16531;SDS011;66872;63.142;14.482;2023-05-10T05:37:17;1.77;;;1.67;;
16531;SDS011;66872;63.142;14.482;2023-05-10T05:39:44;1.70;;;1.60;;
16531;SDS011;66872;63.142;14.482;2023-05-10T05:42:10;1.80;;;1.70;;
16531;SDS011;66872;63.142;14.482;2023-05-10T05:44:37;1.93;;;1.73;;
16531;SDS011;66872;63.142;14.482;2023-05-10T05:47:02;1.60;;;1.50;;
16531;SDS011;66872;63.142;14.482;2023-05-10T05:49:28;1.80;;;1.60;;
16531;SDS011;66872;63.142;14.482;2023-05-10T05:51:54;1.57;;;1.47;;
16531;SDS011;66872;63.142;14.482;2023-05-10T05:54:23;1.70;;;1.50;;
16531;SDS011;66872;63.142;14.482;2023-05-10T05:56:48;1.63;;;1.53;;
16531;SDS011;66872;63.142;14.482;2023-05-10T05:59:14;1.70;;;1.60;;
16531;SDS011;66872;63.142;14.482;2023-05-10T06:01:40;1.70;;;1.60;;
16531;SDS011;66872;63.142;14.482;2023-05-10T06:04:05;1.60;;;1.50;;
16531;SDS011;66872;63.142;14.482;2023-05-10T06:06:31;1.83;;;1.73;;
16531;SDS011;66872;63.142;14.482;2023-05-10T06:08:57;1.77;;;1.57;;
16531;SDS011;66872;63.142;14.482;2023-05-10T06:11:23;4.40;;;1.90;;
16531;SDS011;66872;63.142;14.482;2023-05-10T06:13:48;2.93;;;2.03;;
16531;SDS011;66872;63.142;14.482;2023-05-10T06:16:14;1.93;;;1.60;;
16531;SDS011;66872;63.142;14.482;2023-05-10T06:18:40;2.57;;;1.80;;
16531;SDS011;66872;63.142;14.482;2023-05-10T06:21:06;3.77;;;1.80;;
16531;SDS011;66872;63.142;14.482;2023-05-10T06:23:31;3.13;;;2.10;;
16531;SDS011;66872;63.142;14.482;2023-05-10T06:25:57;2.50;;;1.70;;
16531;SDS011;66872;63.142;14.482;2023-05-10T06:28:23;2.80;;;1.50;;
16531;SDS011;66872;63.142;14.482;2023-05-10T06:30:49;1.87;;;1.77;;
16531;SDS011;66872;63.142;14.482;2023-05-10T06:33:14;2.20;;;1.80;;
16531;SDS011;66872;63.142;14.482;2023-05-10T06:35:41;2.90;;;1.80;;
16531;SDS011;66872;63.142;14.482;2023-05-10T06:38:06;3.27;;;1.90;;
16531;SDS011;66872;63.142;14.482;2023-05-10T06:40:32;2.57;;;2.10;;
16531;SDS011;66872;63.142;14.482;2023-05-10T06:42:58;2.00;;;1.80;;
16531;SDS011;66872;63.142;14.482;2023-05-10T06:45:23;2.90;;;2.10;;
16531;SDS011;66872;63.142;14.482;2023-05-10T06:47:49;2.37;;;1.80;;
16531;SDS011;66872;63.142;14.482;2023-05-10T06:50:15;2.03;;;1.83;;
16531;SDS011;66872;63.142;14.482;2023-05-10T06:52:40;2.30;;;1.93;;
16531;SDS011;66872;63.142;14.482;2023-05-10T06:55:06;2.60;;;1.80;;
16531;SDS011;66872;63.142;14.482;2023-05-10T06:57:33;2.50;;;1.80;;
16531;SDS011;66872;63.142;14.482;2023-05-10T06:59:59;2.00;;;1.80;;
16531;SDS011;66872;63.142;14.482;2023-05-10T07:02:24;2.77;;;1.77;;
16531;SDS011;66872;63.142;14.482;2023-05-10T07:04:50;2.63;;;1.80;;
16531;SDS011;66872;63.142;14.482;2023-05-10T07:07:16;4.10;;;1.97;;
16531;SDS011;66872;63.142;14.482;2023-05-10T07:09:42;1.90;;;1.67;;
16531;SDS011;66872;63.142;14.482;2023-05-10T07:12:08;2.20;;;2.00;;
16531;SDS011;66872;63.142;14.482;2023-05-10T07:14:34;2.33;;;1.80;;
16531;SDS011;66872;63.142;14.482;2023-05-10T07:16:59;2.00;;;1.80;;
16531;SDS011;66872;63.142;14.482;2023-05-10T07:19:25;3.43;;;1.57;;
16531;SDS011;66872;63.142;14.482;2023-05-10T07:21:51;1.73;;;1.63;;
16531;SDS011;66872;63.142;14.482;2023-05-10T07:24:17;1.77;;;1.63;;
16531;SDS011;66872;63.142;14.482;2023-05-10T07:26:42;3.30;;;1.60;;
16531;SDS011;66872;63.142;14.482;2023-05-10T07:29:08;2.33;;;1.80;;
16531;SDS011;66872;63.142;14.482;2023-05-10T07:31:34;2.20;;;2.00;;
16531;SDS011;66872;63.142;14.482;2023-05-10T07:34:00;1.90;;;1.63;;
16531;SDS011;66872;63.142;14.482;2023-05-10T07:36:26;2.37;;;1.90;;
16531;SDS011;66872;63.142;14.482;2023-05-10T07:38:52;2.73;;;1.87;;
16531;SDS011;66872;63.142;14.482;2023-05-10T07:41:18;2.20;;;1.70;;
16531;SDS011;66872;63.142;14.482;2023-05-10T07:43:44;2.73;;;1.67;;
16531;SDS011;66872;63.142;14.482;2023-05-10T07:46:09;1.90;;;1.80;;
16531;SDS011;66872;63.142;14.482;2023-05-10T07:48:36;2.00;;;1.80;;
16531;SDS011;66872;63.142;14.482;2023-05-10T07:51:02;1.70;;;1.60;;
16531;SDS011;66872;63.142;14.482;2023-05-10T07:53:28;1.60;;;1.50;;
16531;SDS011;66872;63.142;14.482;2023-05-10T07:55:54;1.92;;;1.70;;
16531;SDS011;66872;63.142;14.482;2023-05-10T07:58:23;1.70;;;1.60;;
16531;SDS011;66872;63.142;14.482;2023-05-10T08:00:49;1.83;;;1.63;;
16531;SDS011;66872;63.142;14.482;2023-05-10T08:03:14;1.70;;;1.60;;
16531;SDS011;66872;63.142;14.482;2023-05-10T08:05:40;2.17;;;1.70;;
16531;SDS011;66872;63.142;14.482;2023-05-10T08:08:06;2.35;;;1.80;;
16531;SDS011;66872;63.142;14.482;2023-05-10T08:10:32;1.80;;;1.70;;
16531;SDS011;66872;63.142;14.482;2023-05-10T08:12:58;2.00;;;1.80;;
16531;SDS011;66872;63.142;14.482;2023-05-10T08:15:24;1.80;;;1.70;;
16531;SDS011;66872;63.142;14.482;2023-05-10T08:17:51;2.00;;;1.80;;
16531;SDS011;66872;63.142;14.482;2023-05-10T08:20:17;2.70;;;1.60;;
16531;SDS011;66872;63.142;14.482;2023-05-10T08:22:44;1.67;;;1.58;;
16531;SDS011;66872;63.142;14.482;2023-05-10T08:25:10;2.28;;;1.80;;
16531;SDS011;66872;63.142;14.482;2023-05-10T08:27:36;3.05;;;2.00;;
16531;SDS011;66872;63.142;14.482;2023-05-10T08:30:02;2.55;;;1.92;;
16531;SDS011;66872;63.142;14.482;2023-05-10T08:32:28;1.60;;;1.50;;
16531;SDS011;66872;63.142;14.482;2023-05-10T08:34:55;1.75;;;1.65;;
16531;SDS011;66872;63.142;14.482;2023-05-10T08:37:22;1.63;;;1.52;;
16531;SDS011;66872;63.142;14.482;2023-05-10T08:39:48;1.95;;;1.67;;
16531;SDS011;66872;63.142;14.482;2023-05-10T08:42:14;2.42;;;1.63;;
16531;SDS011;66872;63.142;14.482;2023-05-10T08:44:44;2.10;;;1.80;;
16531;SDS011;66872;63.142;14.482;2023-05-10T08:47:15;2.03;;;1.80;;
16531;SDS011;66872;63.142;14.482;2023-05-10T08:49:43;1.83;;;1.73;;
16531;SDS011;66872;63.142;14.482;2023-05-10T08:52:11;1.83;;;1.73;;
16531;SDS011;66872;63.142;14.482;2023-05-10T08:54:39;2.10;;;1.90;;
16531;SDS011;66872;63.142;14.482;2023-05-10T08:57:06;2.10;;;1.50;;
16531;SDS011;66872;63.142;14.482;2023-05-10T08:59:31;2.05;;;1.70;;
16531;SDS011;66872;63.142;14.482;2023-05-10T09:01:58;1.90;;;1.70;;
16531;SDS011;66872;63.142;14.482;2023-05-10T09:04:24;2.22;;;1.70;;
16531;SDS011;66872;63.142;14.482;2023-05-10T09:06:50;1.88;;;1.75;;
16531;SDS011;66872;63.142;14.482;2023-05-10T09:09:17;1.88;;;1.70;;
16531;SDS011;66872;63.142;14.482;2023-05-10T09:11:43;2.20;;;1.85;;
16531;SDS011;66872;63.142;14.482;2023-05-10T09:14:09;1.73;;;1.63;;
16531;SDS011;66872;63.142;14.482;2023-05-10T09:16:37;1.83;;;1.73;;
16531;SDS011;66872;63.142;14.482;2023-05-10T09:19:03;2.20;;;2.00;;
16531;SDS011;66872;63.142;14.482;2023-05-10T09:21:29;1.70;;;1.60;;
16531;SDS011;66872;63.142;14.482;2023-05-10T09:23:56;1.67;;;1.58;;
16531;SDS011;66872;63.142;14.482;2023-05-10T09:26:22;2.33;;;1.70;;
16531;SDS011;66872;63.142;14.482;2023-05-10T09:28:52;1.70;;;1.60;;
16531;SDS011;66872;63.142;14.482;2023-05-10T09:31:20;2.45;;;1.90;;
16531;SDS011;66872;63.142;14.482;2023-05-10T09:33:46;1.85;;;1.63;;
16531;SDS011;66872;63.142;14.482;2023-05-10T09:36:13;1.90;;;1.70;;
16531;SDS011;66872;63.142;14.482;2023-05-10T09:38:46;1.80;;;1.70;;
16531;SDS011;66872;63.142;14.482;2023-05-10T09:41:15;1.90;;;1.70;;
16531;SDS011;66872;63.142;14.482;2023-05-10T09:43:48;2.42;;;1.80;;
16531;SDS011;66872;63.142;14.482;2023-05-10T09:46:14;1.90;;;1.80;;
16531;SDS011;66872;63.142;14.482;2023-05-10T09:48:45;1.95;;;1.77;;
16531;SDS011;66872;63.142;14.482;2023-05-10T09:51:18;2.30;;;1.92;;
16531;SDS011;66872;63.142;14.482;2023-05-10T09:53:48;1.73;;;1.63;;
16531;SDS011;66872;63.142;14.482;2023-05-10T09:56:33;2.05;;;1.85;;
16531;SDS011;66872;63.142;14.482;2023-05-10T09:59:03;2.00;;;1.80;;
16531;SDS011;66872;63.142;14.482;2023-05-10T10:01:30;2.03;;;1.73;;
16531;SDS011;66872;63.142;14.482;2023-05-10T10:03:56;4.33;;;2.10;;
16531;SDS011;66872;63.142;14.482;2023-05-10T10:06:23;2.13;;;1.80;;
16531;SDS011;66872;63.142;14.482;2023-05-10T10:08:50;2.20;;;1.70;;
16531;SDS011;66872;63.142;14.482;2023-05-10T10:11:16;2.08;;;1.80;;
16531;SDS011;66872;63.142;14.482;2023-05-10T10:13:42;2.35;;;1.90;;
16531;SDS011;66872;63.142;14.482;2023-05-10T10:16:08;1.65;;;1.55;;
16531;SDS011;66872;63.142;14.482;2023-05-10T10:18:35;2.47;;;1.90;;
16531;SDS011;66872;63.142;14.482;2023-05-10T10:21:04;2.17;;;2.00;;
16531;SDS011;66872;63.142;14.482;2023-05-10T10:23:36;2.08;;;1.48;;
16531;SDS011;66872;63.142;14.482;2023-05-10T10:26:02;2.03;;;1.83;;
16531;SDS011;66872;63.142;14.482;2023-05-10T10:31:36;1.98;;;1.80;;
16531;SDS011;66872;63.142;14.482;2023-05-10T10:34:24;3.10;;;1.90;;
16531;SDS011;66872;63.142;14.482;2023-05-10T10:36:52;2.13;;;1.93;;
16531;SDS011;66872;63.142;14.482;2023-05-10T10:39:20;1.70;;;1.60;;
16531;SDS011;66872;63.142;14.482;2023-05-10T10:41:53;2.17;;;1.97;;
16531;SDS011;66872;63.142;14.482;2023-05-10T10:49:27;1.83;;;1.70;;
16531;SDS011;66872;63.142;14.482;2023-05-10T10:54:40;1.83;;;1.73;;
16531;SDS011;66872;63.142;14.482;2023-05-10T10:57:13;2.83;;;1.80;;
16531;SDS011;66872;63.142;14.482;2023-05-10T10:59:42;1.90;;;1.70;;
16531;SDS011;66872;63.142;14.482;2023-05-10T11:02:09;1.83;;;1.73;;
16531;SDS011;66872;63.142;14.482;2023-05-10T11:04:42;1.80;;;1.60;;
16531;SDS011;66872;63.142;14.482;2023-05-10T11:07:18;2.10;;;1.90;;
16531;SDS011;66872;63.142;14.482;2023-05-10T11:09:45;1.70;;;1.60;;
16531;SDS011;66872;63.142;14.482;2023-05-10T11:12:12;2.00;;;1.80;;
16531;SDS011;66872;63.142;14.482;2023-05-10T11:14:37;1.90;;;1.70;;
16531;SDS011;66872;63.142;14.482;2023-05-10T11:20:08;2.00;;;1.70;;
16531;SDS011;66872;63.142;14.482;2023-05-10T11:22:51;1.83;;;1.73;;
16531;SDS011;66872;63.142;14.482;2023-05-10T11:25:17;1.90;;;1.70;;
16531;SDS011;66872;63.142;14.482;2023-05-10T11:27:43;2.00;;;1.90;;
16531;SDS011;66872;63.142;14.482;2023-05-10T11:30:10;1.63;;;1.53;;
16531;SDS011;66872;63.142;14.482;2023-05-10T11:32:40;1.80;;;1.70;;
16531;SDS011;66872;63.142;14.482;2023-05-10T11:35:09;2.20;;;2.00;;
16531;SDS011;66872;63.142;14.482;2023-05-10T11:37:36;2.87;;;1.77;;
16531;SDS011;66872;63.142;14.482;2023-05-10T11:40:06;1.80;;;1.70;;
16531;SDS011;66872;63.142;14.482;2023-05-10T11:42:35;1.67;;;1.57;;
16531;SDS011;66872;63.142;14.482;2023-05-10T11:45:04;1.90;;;1.80;;
16531;SDS011;66872;63.142;14.482;2023-05-10T11:47:31;1.87;;;1.77;;
16531;SDS011;66872;63.142;14.482;2023-05-10T11:49:57;2.80;;;1.77;;
16531;SDS011;66872;63.142;14.482;2023-05-10T11:52:23;2.20;;;2.00;;
16531;SDS011;66872;63.142;14.482;2023-05-10T11:54:52;1.80;;;1.70;;
16531;SDS011;66872;63.142;14.482;2023-05-10T11:57:21;1.70;;;1.60;;
16531;SDS011;66872;63.142;14.482;2023-05-10T11:59:54;1.90;;;1.80;;
16531;SDS011;66872;63.142;14.482;2023-05-10T12:02:21;1.80;;;1.70;;
16531;SDS011;66872;63.142;14.482;2023-05-10T12:04:47;2.00;;;1.87;;
16531;SDS011;66872;63.142;14.482;2023-05-10T12:07:13;2.20;;;1.70;;
16531;SDS011;66872;63.142;14.482;2023-05-10T12:10:01;4.17;;;1.73;;
16531;SDS011;66872;63.142;14.482;2023-05-10T12:12:37;2.07;;;1.97;;
16531;SDS011;66872;63.142;14.482;2023-05-10T12:15:04;2.20;;;2.00;;
16531;SDS011;66872;63.142;14.482;2023-05-10T12:17:31;1.77;;;1.67;;
16531;SDS011;66872;63.142;14.482;2023-05-10T12:20:19;2.20;;;2.00;;
16531;SDS011;66872;63.142;14.482;2023-05-10T12:22:50;1.90;;;1.77;;
16531;SDS011;66872;63.142;14.482;2023-05-10T12:25:21;1.90;;;1.80;;
16531;SDS011;66872;63.142;14.482;2023-05-10T12:27:51;2.17;;;1.70;;
16531;SDS011;66872;63.142;14.482;2023-05-10T12:30:30;2.67;;;1.90;;
16531;SDS011;66872;63.142;14.482;2023-05-10T12:33:11;3.40;;;1.87;;
16531;SDS011;66872;63.142;14.482;2023-05-10T12:35:47;2.37;;;1.80;;
16531;SDS011;66872;63.142;14.482;2023-05-10T12:38:27;2.17;;;1.77;;
16531;SDS011;66872;63.142;14.482;2023-05-10T12:41:00;2.07;;;1.87;;
16531;SDS011;66872;63.142;14.482;2023-05-10T12:43:27;1.80;;;1.70;;
16531;SDS011;66872;63.142;14.482;2023-05-10T12:45:53;2.80;;;1.70;;
16531;SDS011;66872;63.142;14.482;2023-05-10T12:48:19;1.87;;;1.77;;
16531;SDS011;66872;63.142;14.482;2023-05-10T12:50:45;2.20;;;2.00;;
16531;SDS011;66872;63.142;14.482;2023-05-10T12:53:12;2.90;;;1.87;;
16531;SDS011;66872;63.142;14.482;2023-05-10T12:55:40;3.47;;;1.80;;
16531;SDS011;66872;63.142;14.482;2023-05-10T12:58:06;3.17;;;1.93;;
16531;SDS011;66872;63.142;14.482;2023-05-10T13:00:32;3.10;;;1.80;;
16531;SDS011;66872;63.142;14.482;2023-05-10T13:02:57;3.33;;;2.10;;
16531;SDS011;66872;63.142;14.482;2023-05-10T13:05:23;3.50;;;1.87;;
16531;SDS011;66872;63.142;14.482;2023-05-10T13:07:49;3.87;;;2.13;;
16531;SDS011;66872;63.142;14.482;2023-05-10T13:10:15;3.37;;;2.27;;
16531;SDS011;66872;63.142;14.482;2023-05-10T13:12:41;3.97;;;2.30;;
16531;SDS011;66872;63.142;14.482;2023-05-10T13:15:07;7.37;;;2.10;;
16531;SDS011;66872;63.142;14.482;2023-05-10T13:17:33;2.53;;;1.90;;
16531;SDS011;66872;63.142;14.482;2023-05-10T13:19:58;8.40;;;2.20;;
16531;SDS011;66872;63.142;14.482;2023-05-10T13:22:24;4.00;;;1.87;;
16531;SDS011;66872;63.142;14.482;2023-05-10T13:24:50;4.70;;;2.10;;
16531;SDS011;66872;63.142;14.482;2023-05-10T13:27:16;4.27;;;2.27;;
16531;SDS011;66872;63.142;14.482;2023-05-10T13:29:41;3.03;;;1.90;;
16531;SDS011;66872;63.142;14.482;2023-05-10T13:32:07;3.63;;;2.03;;
16531;SDS011;66872;63.142;14.482;2023-05-10T13:34:33;7.23;;;2.13;;
16531;SDS011;66872;63.142;14.482;2023-05-10T13:37:00;4.53;;;2.30;;
16531;SDS011;66872;63.142;14.482;2023-05-10T13:39:26;3.57;;;1.93;;
16531;SDS011;66872;63.142;14.482;2023-05-10T13:41:52;3.80;;;2.10;;
16531;SDS011;66872;63.142;14.482;2023-05-10T13:44:17;5.40;;;2.17;;
16531;SDS011;66872;63.142;14.482;2023-05-10T13:46:45;9.00;;;2.23;;
16531;SDS011;66872;63.142;14.482;2023-05-10T13:49:11;5.53;;;2.53;;
16531;SDS011;66872;63.142;14.482;2023-05-10T13:51:37;7.27;;;2.47;;
16531;SDS011;66872;63.142;14.482;2023-05-10T13:54:02;3.73;;;2.20;;
16531;SDS011;66872;63.142;14.482;2023-05-10T13:56:28;5.43;;;2.23;;
16531;SDS011;66872;63.142;14.482;2023-05-10T13:58:55;4.57;;;1.90;;
16531;SDS011;66872;63.142;14.482;2023-05-10T14:01:22;2.83;;;2.07;;
16531;SDS011;66872;63.142;14.482;2023-05-10T14:03:48;6.70;;;2.27;;
16531;SDS011;66872;63.142;14.482;2023-05-10T14:06:13;7.03;;;2.37;;
16531;SDS011;66872;63.142;14.482;2023-05-10T14:08:39;4.07;;;2.23;;
16531;SDS011;66872;63.142;14.482;2023-05-10T14:11:05;7.70;;;2.60;;
16531;SDS011;66872;63.142;14.482;2023-05-10T14:13:31;6.93;;;2.17;;
16531;SDS011;66872;63.142;14.482;2023-05-10T14:15:56;5.90;;;2.53;;
16531;SDS011;66872;63.142;14.482;2023-05-10T14:18:23;8.87;;;2.03;;
16531;SDS011;66872;63.142;14.482;2023-05-10T14:20:49;4.10;;;2.10;;
16531;SDS011;66872;63.142;14.482;2023-05-10T14:23:15;5.90;;;1.97;;
16531;SDS011;66872;63.142;14.482;2023-05-10T14:25:40;7.33;;;2.30;;
16531;SDS011;66872;63.142;14.482;2023-05-10T14:28:06;6.20;;;2.30;;
16531;SDS011;66872;63.142;14.482;2023-05-10T14:30:32;14.87;;;2.73;;
16531;SDS011;66872;63.142;14.482;2023-05-10T14:32:59;10.23;;;2.47;;
16531;SDS011;66872;63.142;14.482;2023-05-10T14:35:26;26.63;;;4.33;;
16531;SDS011;66872;63.142;14.482;2023-05-10T14:37:52;28.67;;;4.27;;
16531;SDS011;66872;63.142;14.482;2023-05-10T14:40:18;17.50;;;3.80;;
16531;SDS011;66872;63.142;14.482;2023-05-10T14:42:44;20.03;;;4.07;;
16531;SDS011;66872;63.142;14.482;2023-05-10T14:45:10;21.67;;;3.50;;
16531;SDS011;66872;63.142;14.482;2023-05-10T14:47:36;22.60;;;4.30;;
16531;SDS011;66872;63.142;14.482;2023-05-10T14:50:02;16.10;;;3.40;;
16531;SDS011;66872;63.142;14.482;2023-05-10T14:52:28;18.30;;;3.90;;
16531;SDS011;66872;63.142;14.482;2023-05-10T14:54:54;15.70;;;4.00;;
16531;SDS011;66872;63.142;14.482;2023-05-10T14:57:20;17.23;;;4.10;;
16531;SDS011;66872;63.142;14.482;2023-05-10T14:59:46;13.40;;;3.70;;
16531;SDS011;66872;63.142;14.482;2023-05-10T15:02:11;14.97;;;3.40;;
16531;SDS011;66872;63.142;14.482;2023-05-10T15:04:37;12.07;;;3.43;;
16531;SDS011;66872;63.142;14.482;2023-05-10T15:07:03;13.90;;;3.30;;